Time;durP1;ratioP1;P1;durP2;ratioP2;P2;SDS_P1;SDS_P2;PMS_P1;PMS_P2;Temp;Humidity;BMP_temperature;BMP_pressure;BME280_temperature;BME280_humidity;BME280_pressure;Samples;Min_cycle;Max_cycle;Signal;HPM_P1;HPM_P2
2022/08/30 00:01:05;;;;;;;1.50;1.30;;;15.90;99.90;;;;;;610715;235;26586;-70
2022/08/30 00:03:44;;;;;;;1.50;1.40;;;15.90;99.90;;;;;;610012;235;26843;-70
2022/08/30 00:06:12;;;;;;;1.67;1.25;;;15.90;99.90;;;;;;606073;234;26545;-70
2022/08/30 00:08:39;;;;;;;1.40;1.40;;;15.90;99.90;;;;;;613651;233;26802;-70
2022/08/30 00:11:08;;;;;;;1.20;1.20;;;15.80;99.90;;;;;;613517;234;26642;-70
2022/08/30 00:13:34;;;;;;;1.65;1.40;;;15.90;99.90;;;;;;613104;234;26560;-69
2022/08/30 00:16:01;;;;;;;1.23;1.23;;;15.90;99.90;;;;;;613532;234;26798;-70
2022/08/30 00:18:28;;;;;;;1.20;1.20;;;15.80;99.90;;;;;;611498;230;26566;-69
2022/08/30 00:20:55;;;;;;;1.48;1.37;;;15.90;99.90;;;;;;610903;234;26880;-70
2022/08/30 00:23:22;;;;;;;1.02;1.02;;;15.90;99.90;;;;;;612598;235;26651;-70
2022/08/30 00:25:49;;;;;;;1.27;1.27;;;15.90;99.90;;;;;;609794;234;26604;-69
2022/08/30 00:28:17;;;;;;;1.33;1.23;;;15.90;99.90;;;;;;610468;235;26584;-72
2022/08/30 00:30:45;;;;;;;1.58;1.48;;;16.00;99.90;;;;;;606662;234;26611;-71
2022/08/30 00:33:13;;;;;;;1.37;1.27;;;16.00;99.90;;;;;;609877;235;26667;-71
2022/08/30 00:35:42;;;;;;;1.40;1.10;;;16.00;99.90;;;;;;607084;234;26581;-71
2022/08/30 00:38:09;;;;;;;1.00;1.00;;;16.00;99.90;;;;;;606200;235;26822;-71
2022/08/30 00:40:36;;;;;;;2.67;1.25;;;16.00;99.90;;;;;;611810;235;26647;-71
2022/08/30 00:43:03;;;;;;;1.17;1.17;;;16.10;99.90;;;;;;609399;235;26587;-71
2022/08/30 00:45:31;;;;;;;1.30;1.20;;;16.10;99.90;;;;;;604930;234;26579;-71
2022/08/30 00:47:58;;;;;;;1.27;1.20;;;16.00;99.90;;;;;;605150;235;26586;-71
2022/08/30 00:50:26;;;;;;;1.50;1.40;;;16.00;99.90;;;;;;612298;235;27076;-71
2022/08/30 00:52:53;;;;;;;1.40;1.25;;;16.00;99.90;;;;;;607825;235;26598;-71
2022/08/30 00:55:21;;;;;;;1.10;1.10;;;16.00;99.90;;;;;;604592;237;26579;-71
2022/08/30 00:57:48;;;;;;;1.50;1.20;;;16.00;99.90;;;;;;610479;235;26603;-71
2022/08/30 01:00:15;;;;;;;1.05;1.05;;;16.00;99.90;;;;;;611216;235;26825;-71
2022/08/30 01:02:43;;;;;;;1.05;1.05;;;16.00;99.90;;;;;;605714;235;26582;-71
2022/08/30 01:05:11;;;;;;;1.23;1.12;;;16.00;99.90;;;;;;605104;235;26589;-71
2022/08/30 01:07:39;;;;;;;1.30;1.20;;;16.00;99.90;;;;;;604720;235;26616;-72
2022/08/30 01:10:08;;;;;;;1.00;1.00;;;15.90;99.90;;;;;;606124;235;26586;-71
2022/08/30 01:12:35;;;;;;;1.15;1.15;;;15.90;99.90;;;;;;604614;236;26597;-71
2022/08/30 01:15:03;;;;;;;1.52;1.23;;;15.80;99.90;;;;;;609140;235;26600;-71
2022/08/30 01:17:31;;;;;;;1.12;1.10;;;15.70;99.90;;;;;;607620;234;26646;-71
2022/08/30 01:19:59;;;;;;;1.15;1.05;;;15.60;99.90;;;;;;610354;234;26853;-71
2022/08/30 01:22:58;;;;;;;1.20;1.20;;;15.60;99.90;;;;;;605654;237;26651;-71
2022/08/30 01:25:25;;;;;;;1.02;1.02;;;15.50;99.90;;;;;;598759;239;26665;-71
2022/08/30 01:27:53;;;;;;;1.20;1.20;;;15.40;99.90;;;;;;609345;234;26919;-71
2022/08/30 01:30:22;;;;;;;2.20;1.00;;;15.40;99.90;;;;;;612447;235;27319;-71
2022/08/30 01:32:47;;;;;;;1.00;1.00;;;15.30;99.90;;;;;;613263;235;26624;-71
2022/08/30 01:35:15;;;;;;;1.40;1.30;;;15.30;99.90;;;;;;606873;235;26636;-71
2022/08/30 01:37:43;;;;;;;0.90;0.90;;;15.30;99.90;;;;;;609959;235;26670;-71
2022/08/30 01:40:11;;;;;;;1.17;1.17;;;15.30;99.90;;;;;;608592;235;26677;-71
2022/08/30 01:42:39;;;;;;;1.20;1.20;;;15.30;99.90;;;;;;612756;234;26612;-71
2022/08/30 01:45:07;;;;;;;1.00;1.00;;;15.20;99.90;;;;;;605071;235;26597;-74
2022/08/30 01:47:34;;;;;;;2.90;1.40;;;15.30;99.90;;;;;;609681;235;26863;-70
2022/08/30 01:50:01;;;;;;;3.60;1.52;;;15.30;99.90;;;;;;610238;234;26625;-70
2022/08/30 01:52:28;;;;;;;1.30;1.30;;;15.30;99.90;;;;;;610168;235;26944;-70
2022/08/30 01:54:55;;;;;;;1.17;1.17;;;15.30;99.90;;;;;;605389;235;26596;-70
2022/08/30 01:57:25;;;;;;;0.90;0.90;;;15.40;99.90;;;;;;607887;235;26918;-70
2022/08/30 01:59:50;;;;;;;1.10;1.10;;;15.40;99.90;;;;;;608326;235;26548;-70
2022/08/30 02:02:21;;;;;;;1.00;1.00;;;15.40;99.90;;;;;;610930;235;26833;-70
2022/08/30 02:04:47;;;;;;;1.17;1.17;;;15.30;99.90;;;;;;612292;234;26647;-70
2022/08/30 02:07:15;;;;;;;1.10;1.10;;;15.30;99.90;;;;;;605911;234;26897;-70
2022/08/30 02:09:42;;;;;;;1.10;1.10;;;15.20;99.90;;;;;;604414;237;26583;-70
2022/08/30 02:12:09;;;;;;;1.27;1.27;;;15.10;99.90;;;;;;604625;235;27128;-70
2022/08/30 02:14:36;;;;;;;1.05;1.05;;;15.10;99.90;;;;;;608340;235;27261;-70
2022/08/30 02:17:04;;;;;;;1.27;1.17;;;15.10;99.90;;;;;;608392;235;26901;-70
2022/08/30 02:19:31;;;;;;;0.90;0.90;;;15.00;99.90;;;;;;604772;235;26602;-70
2022/08/30 02:21:59;;;;;;;1.30;1.00;;;15.00;99.90;;;;;;604626;238;26587;-70
2022/08/30 02:24:27;;;;;;;1.27;1.20;;;14.90;99.90;;;;;;605202;235;26578;-70
2022/08/30 02:26:55;;;;;;;1.33;1.23;;;14.80;99.90;;;;;;604834;235;26586;-70
2022/08/30 02:29:22;;;;;;;0.90;0.90;;;14.80;99.90;;;;;;605237;235;26612;-70
2022/08/30 02:31:49;;;;;;;1.20;1.20;;;14.80;99.90;;;;;;607485;234;26575;-70
2022/08/30 02:34:16;;;;;;;1.12;1.10;;;14.80;99.90;;;;;;610502;234;26871;-70
2022/08/30 02:36:43;;;;;;;1.10;1.10;;;14.80;99.90;;;;;;611992;234;26646;-70
2022/08/30 02:39:11;;;;;;;0.95;0.95;;;14.80;99.90;;;;;;609746;234;26863;-70
2022/08/30 02:41:38;;;;;;;1.30;1.30;;;14.80;99.90;;;;;;608831;234;26573;-70
2022/08/30 02:44:05;;;;;;;1.42;1.33;;;14.80;99.90;;;;;;606394;235;26863;-70
2022/08/30 02:46:32;;;;;;;1.67;1.20;;;14.80;99.90;;;;;;611093;235;26586;-70
2022/08/30 02:49:00;;;;;;;1.40;1.30;;;14.80;99.90;;;;;;608863;234;26963;-70
2022/08/30 02:51:27;;;;;;;0.98;0.98;;;14.70;99.90;;;;;;604809;237;26622;-69
2022/08/30 02:53:54;;;;;;;1.10;1.10;;;14.80;99.90;;;;;;607166;235;26842;-70
2022/08/30 02:56:22;;;;;;;1.10;1.10;;;14.70;99.90;;;;;;604865;237;26575;-70
2022/08/30 02:58:50;;;;;;;1.10;1.10;;;14.70;99.90;;;;;;608351;235;26641;-70
2022/08/30 03:01:18;;;;;;;1.40;1.30;;;14.70;99.90;;;;;;610245;234;26604;-70
2022/08/30 03:03:46;;;;;;;1.10;1.10;;;14.70;99.90;;;;;;596274;237;26664;-70
2022/08/30 03:06:13;;;;;;;1.37;1.25;;;14.60;99.90;;;;;;605308;237;26596;-70
2022/08/30 03:08:40;;;;;;;0.98;0.98;;;14.70;99.90;;;;;;607538;235;26617;-70
2022/08/30 03:11:07;;;;;;;1.00;1.00;;;14.70;99.90;;;;;;608062;235;26891;-70
2022/08/30 03:13:35;;;;;;;1.12;1.12;;;14.60;99.90;;;;;;604598;236;26599;-70
2022/08/30 03:16:02;;;;;;;1.10;1.10;;;14.70;99.90;;;;;;604708;235;26913;-70
2022/08/30 03:18:29;;;;;;;1.17;1.17;;;14.60;99.90;;;;;;609013;235;26827;-70
2022/08/30 03:20:56;;;;;;;1.15;1.15;;;14.60;99.90;;;;;;605009;235;26617;-70
2022/08/30 03:23:23;;;;;;;1.12;1.02;;;14.60;99.90;;;;;;607093;235;26829;-70
2022/08/30 03:25:52;;;;;;;1.33;1.30;;;14.60;99.90;;;;;;612389;235;26630;-70
2022/08/30 03:28:19;;;;;;;1.25;1.15;;;14.60;99.90;;;;;;606967;235;26561;-70
2022/08/30 03:30:47;;;;;;;1.20;1.20;;;14.60;99.90;;;;;;611396;235;26619;-70
2022/08/30 03:33:14;;;;;;;1.30;1.20;;;14.60;99.90;;;;;;606398;235;26557;-70
2022/08/30 03:35:42;;;;;;;1.08;1.08;;;14.60;99.90;;;;;;610525;235;26580;-70
2022/08/30 03:38:09;;;;;;;1.15;1.15;;;14.60;99.90;;;;;;608130;235;26561;-70
2022/08/30 03:40:36;;;;;;;1.23;1.12;;;14.60;99.90;;;;;;611372;232;26635;-70
2022/08/30 03:43:03;;;;;;;1.10;1.10;;;14.70;99.90;;;;;;614377;234;27017;-70
2022/08/30 03:45:30;;;;;;;1.58;1.20;;;14.80;99.90;;;;;;613322;234;26542;-70
2022/08/30 03:47:58;;;;;;;1.10;1.10;;;14.90;99.90;;;;;;612821;234;26834;-70
2022/08/30 03:50:25;;;;;;;1.17;1.08;;;14.90;99.90;;;;;;607872;234;26852;-70
2022/08/30 03:52:52;;;;;;;1.23;1.23;;;14.90;99.90;;;;;;610650;235;26825;-70
2022/08/30 03:55:19;;;;;;;1.00;1.00;;;14.90;99.90;;;;;;607080;234;26648;-70
2022/08/30 03:57:46;;;;;;;1.65;1.10;;;14.80;99.90;;;;;;612614;235;26834;-70
2022/08/30 04:00:14;;;;;;;1.50;1.30;;;14.80;99.90;;;;;;606290;234;26577;-70
2022/08/30 04:02:41;;;;;;;1.20;1.20;;;14.70;99.90;;;;;;612160;234;26818;-70
2022/08/30 04:05:09;;;;;;;1.15;1.15;;;14.70;99.90;;;;;;610176;230;26595;-69
2022/08/30 04:07:36;;;;;;;1.10;1.10;;;14.60;99.90;;;;;;605078;235;26821;-69
2022/08/30 04:10:03;;;;;;;1.05;1.05;;;14.60;99.90;;;;;;607147;235;26617;-69
2022/08/30 04:12:30;;;;;;;1.12;1.12;;;14.60;99.90;;;;;;611120;235;26632;-70
2022/08/30 04:14:58;;;;;;;1.17;1.17;;;14.60;99.90;;;;;;607048;235;26618;-70
2022/08/30 04:17:25;;;;;;;1.10;1.10;;;14.50;99.90;;;;;;610893;235;26856;-70
2022/08/30 04:19:52;;;;;;;1.48;1.33;;;14.50;99.90;;;;;;610974;234;26571;-70
2022/08/30 04:22:20;;;;;;;1.35;1.10;;;14.50;99.90;;;;;;611201;235;26879;-70
2022/08/30 04:24:46;;;;;;;0.93;0.93;;;14.50;99.90;;;;;;609056;235;26584;-74
2022/08/30 04:27:14;;;;;;;1.40;1.27;;;14.50;99.90;;;;;;612360;234;26863;-72
2022/08/30 04:29:41;;;;;;;4.22;1.50;;;14.50;99.90;;;;;;605844;234;26587;-70
2022/08/30 04:32:09;;;;;;;2.72;1.27;;;14.60;99.90;;;;;;609612;235;27118;-71
2022/08/30 04:34:36;;;;;;;4.25;1.70;;;14.60;99.90;;;;;;604899;236;26904;-71
2022/08/30 04:37:04;;;;;;;3.12;1.40;;;14.50;99.90;;;;;;605376;236;26600;-72
2022/08/30 04:39:32;;;;;;;1.58;1.48;;;14.50;99.90;;;;;;605640;235;26626;-72
2022/08/30 04:42:02;;;;;;;1.42;1.33;;;14.50;99.90;;;;;;607691;235;26700;-72
2022/08/30 04:44:27;;;;;;;1.00;1.00;;;14.50;99.90;;;;;;611305;235;26663;-72
2022/08/30 04:46:54;;;;;;;0.95;0.95;;;14.60;99.90;;;;;;606894;234;26540;-71
2022/08/30 04:49:22;;;;;;;0.88;0.88;;;14.70;99.90;;;;;;609212;236;26551;-71
2022/08/30 04:51:49;;;;;;;1.20;1.10;;;14.60;99.90;;;;;;604986;235;26621;-71
2022/08/30 04:54:17;;;;;;;1.30;1.30;;;14.70;99.90;;;;;;607606;234;26567;-72
2022/08/30 04:56:44;;;;;;;1.27;1.27;;;14.90;99.90;;;;;;612254;234;26801;-71
2022/08/30 04:59:12;;;;;;;1.30;1.20;;;14.90;99.90;;;;;;611117;235;26561;-70
2022/08/30 05:01:39;;;;;;;1.20;1.20;;;15.00;99.90;;;;;;610734;235;27217;-70
2022/08/30 05:04:06;;;;;;;1.42;1.33;;;15.00;99.90;;;;;;611708;235;26638;-71
2022/08/30 05:06:33;;;;;;;1.12;1.10;;;15.10;99.90;;;;;;605144;237;26876;-71
2022/08/30 05:09:00;;;;;;;1.40;1.20;;;15.10;99.90;;;;;;605147;237;26644;-71
2022/08/30 05:11:28;;;;;;;1.25;1.25;;;15.20;99.90;;;;;;610590;235;26860;-71
2022/08/30 05:13:55;;;;;;;1.30;1.17;;;15.20;99.90;;;;;;611135;235;26553;-70
2022/08/30 05:16:22;;;;;;;1.10;1.10;;;15.30;99.90;;;;;;610860;235;26863;-68
2022/08/30 05:18:49;;;;;;;1.20;1.20;;;15.40;99.90;;;;;;611166;234;26572;-70
2022/08/30 05:21:16;;;;;;;3.83;1.48;;;15.50;99.90;;;;;;612142;235;26873;-71
2022/08/30 05:23:44;;;;;;;1.37;1.20;;;15.60;99.90;;;;;;612768;234;26599;-71
2022/08/30 05:26:11;;;;;;;1.62;1.20;;;15.80;99.90;;;;;;611567;234;26890;-71
2022/08/30 05:28:39;;;;;;;2.30;1.20;;;16.00;99.90;;;;;;604956;235;26595;-70
2022/08/30 05:31:14;;;;;;;1.33;1.20;;;16.10;99.90;;;;;;604293;237;26601;-71
2022/08/30 05:33:41;;;;;;;1.50;1.40;;;16.10;99.90;;;;;;604538;237;26591;-72
2022/08/30 05:36:09;;;;;;;6.60;1.30;;;16.40;99.90;;;;;;604597;237;26590;-68
2022/08/30 05:38:37;;;;;;;3.15;1.40;;;16.50;99.90;;;;;;604457;238;26574;-68
2022/08/30 05:41:05;;;;;;;1.27;1.10;;;16.60;99.90;;;;;;604515;237;26650;-69
2022/08/30 05:43:32;;;;;;;1.60;1.17;;;16.60;99.90;;;;;;604602;237;27225;-67
2022/08/30 05:46:01;;;;;;;1.30;1.20;;;16.70;99.90;;;;;;604616;238;26578;-68
2022/08/30 05:48:28;;;;;;;1.37;1.20;;;16.80;99.90;;;;;;604963;237;26583;-67
2022/08/30 05:51:03;;;;;;;1.10;1.10;;;16.90;99.90;;;;;;604949;238;26586;-67
2022/08/30 05:53:31;;;;;;;1.15;0.90;;;17.10;99.90;;;;;;604722;237;26587;-69
2022/08/30 05:55:59;;;;;;;3.12;1.48;;;17.20;99.90;;;;;;604572;238;26593;-68
2022/08/30 05:58:27;;;;;;;1.10;1.10;;;17.20;99.90;;;;;;604542;237;26610;-68
2022/08/30 06:00:54;;;;;;;1.37;1.08;;;17.30;99.90;;;;;;604526;237;26610;-69
2022/08/30 06:03:21;;;;;;;1.12;1.10;;;17.40;99.90;;;;;;604536;238;26596;-68
2022/08/30 06:05:49;;;;;;;1.00;1.00;;;17.40;99.90;;;;;;606073;235;26790;-68
2022/08/30 06:08:16;;;;;;;1.45;1.00;;;17.50;99.90;;;;;;605669;236;26903;-68
2022/08/30 06:10:43;;;;;;;1.15;1.00;;;17.50;99.90;;;;;;605305;237;26634;-68
2022/08/30 06:13:10;;;;;;;3.50;1.10;;;17.70;99.90;;;;;;605472;234;26849;-68
2022/08/30 06:15:38;;;;;;;1.33;1.17;;;17.60;99.90;;;;;;612584;235;26628;-68
2022/08/30 06:18:05;;;;;;;2.25;1.40;;;17.80;99.90;;;;;;613028;235;26942;-68
2022/08/30 06:20:32;;;;;;;0.85;0.85;;;17.80;99.90;;;;;;612999;234;26655;-68
2022/08/30 06:23:00;;;;;;;1.33;1.00;;;18.00;99.90;;;;;;612831;229;27223;-68
2022/08/30 06:25:27;;;;;;;1.37;1.27;;;18.00;99.90;;;;;;612688;234;26591;-66
2022/08/30 06:27:55;;;;;;;1.17;1.17;;;18.20;99.90;;;;;;612762;230;26583;-67
2022/08/30 06:30:23;;;;;;;1.67;1.17;;;18.30;99.90;;;;;;612731;234;26617;-67
2022/08/30 06:32:51;;;;;;;1.83;1.40;;;18.30;99.90;;;;;;612638;234;26584;-67
2022/08/30 06:35:19;;;;;;;1.35;1.25;;;18.40;99.90;;;;;;612726;234;26591;-67
2022/08/30 06:37:46;;;;;;;1.48;1.30;;;18.40;99.90;;;;;;612711;234;26668;-67
2022/08/30 06:40:16;;;;;;;1.02;1.02;;;18.50;99.90;;;;;;612620;234;26584;-67
2022/08/30 06:42:42;;;;;;;2.20;1.10;;;18.50;99.90;;;;;;612226;235;26854;-67
2022/08/30 06:45:09;;;;;;;1.00;1.00;;;18.50;99.90;;;;;;612365;235;26656;-67
2022/08/30 06:47:36;;;;;;;1.23;1.20;;;18.60;99.90;;;;;;612470;235;26656;-67
2022/08/30 06:50:04;;;;;;;1.50;1.37;;;18.50;99.90;;;;;;612462;235;26833;-67
2022/08/30 06:52:31;;;;;;;1.62;1.33;;;18.70;99.90;;;;;;612449;235;26633;-67
2022/08/30 06:54:58;;;;;;;1.27;1.27;;;18.80;99.90;;;;;;612443;234;26861;-67
2022/08/30 06:57:25;;;;;;;1.62;1.45;;;19.00;99.90;;;;;;612414;234;26631;-67
2022/08/30 06:59:55;;;;;;;1.10;1.10;;;19.20;99.90;;;;;;612443;234;27417;-67
2022/08/30 07:02:23;;;;;;;1.12;1.12;;;19.40;99.90;;;;;;612413;235;26651;-67
2022/08/30 07:04:51;;;;;;;1.17;1.17;;;19.40;99.90;;;;;;612444;234;26643;-67
2022/08/30 07:07:18;;;;;;;1.35;1.25;;;19.40;99.90;;;;;;608488;234;26623;-67
2022/08/30 07:09:46;;;;;;;1.12;1.12;;;19.50;99.90;;;;;;604605;237;26572;-67
2022/08/30 07:12:14;;;;;;;1.52;1.42;;;19.40;99.90;;;;;;606421;236;26892;-67
2022/08/30 07:14:41;;;;;;;1.75;1.65;;;19.30;99.90;;;;;;609607;235;26573;-67
2022/08/30 07:18:49;;;;;;;1.35;1.30;;;19.30;99.90;;;;;;612716;234;27294;-67
2022/08/30 07:19:34;;;;;;;1.40;1.30;;;19.30;99.90;;;;;;606628;234;26582;-67
2022/08/30 07:22:02;;;;;;;1.50;1.40;;;19.50;99.90;;;;;;609877;234;27551;-67
2022/08/30 07:24:29;;;;;;;1.45;1.45;;;19.60;99.90;;;;;;605425;236;26593;-67
2022/08/30 07:26:56;;;;;;;1.83;1.73;;;19.80;99.90;;;;;;611349;235;27298;-67
2022/08/30 07:29:23;;;;;;;1.30;1.30;;;20.00;99.90;;;;;;613026;234;26648;-67
2022/08/30 07:31:50;;;;;;;1.85;1.62;;;20.10;99.90;;;;;;613049;235;26886;-68
2022/08/30 07:34:19;;;;;;;1.65;1.55;;;20.00;99.90;;;;;;612925;234;26618;-68
2022/08/30 07:36:45;;;;;;;1.90;1.73;;;20.10;99.90;;;;;;612636;230;26814;-68
2022/08/30 07:39:13;;;;;;;1.58;1.55;;;20.20;99.90;;;;;;606152;234;26586;-68
2022/08/30 07:41:40;;;;;;;2.17;2.05;;;20.30;99.90;;;;;;604821;237;26852;-68
2022/08/30 07:44:07;;;;;;;1.85;1.75;;;20.20;99.90;;;;;;604861;238;26586;-68
2022/08/30 07:46:34;;;;;;;2.05;1.95;;;20.40;99.90;;;;;;604910;237;26820;-68
2022/08/30 07:49:01;;;;;;;1.90;1.80;;;20.40;99.90;;;;;;604848;237;26604;-68
2022/08/30 07:51:29;;;;;;;1.87;1.77;;;20.40;99.90;;;;;;604713;237;26840;-68
2022/08/30 07:53:56;;;;;;;2.60;2.05;;;20.50;99.90;;;;;;604544;237;26594;-70
2022/08/30 07:56:23;;;;;;;2.58;1.95;;;20.40;99.90;;;;;;604575;237;26567;-68
2022/08/30 07:58:51;;;;;;;3.15;2.42;;;20.50;99.90;;;;;;604530;237;26586;-69
2022/08/30 08:01:19;;;;;;;2.53;2.30;;;20.60;99.90;;;;;;604519;238;26622;-70
2022/08/30 08:03:49;;;;;;;6.30;2.92;;;20.80;99.90;;;;;;604626;232;26607;-69
2022/08/30 08:06:16;;;;;;;5.10;2.75;;;21.00;99.90;;;;;;604904;235;26587;-70
2022/08/30 08:08:44;;;;;;;4.53;3.20;;;21.00;99.90;;;;;;612467;234;26621;-70
2022/08/30 08:11:12;;;;;;;68.87;16.05;;;21.20;99.90;;;;;;612320;234;26963;-69
2022/08/30 08:13:37;;;;;;;104.43;24.05;;;21.50;99.90;;;;;;612289;235;26596;-69
2022/08/30 08:16:05;;;;;;;121.45;28.87;;;21.60;99.90;;;;;;612480;235;26629;-70
2022/08/30 08:18:33;;;;;;;155.43;31.67;;;21.80;99.90;;;;;;612461;235;26952;-69
2022/08/30 08:21:00;;;;;;;130.48;29.27;;;21.90;99.90;;;;;;612387;235;26692;-71
2022/08/30 08:23:28;;;;;;;122.70;28.38;;;22.00;99.90;;;;;;612400;234;26628;-68
2022/08/30 08:25:56;;;;;;;88.78;22.37;;;22.10;99.90;;;;;;612446;234;26619;-66
2022/08/30 08:28:24;;;;;;;28.85;10.18;;;21.90;99.90;;;;;;613668;232;26662;-66
2022/08/30 08:30:53;;;;;;;44.47;14.68;;;21.90;99.90;;;;;;613690;233;26606;-66
2022/08/30 08:33:20;;;;;;;6.93;3.67;;;21.90;99.90;;;;;;613327;234;26833;-66
2022/08/30 08:35:47;;;;;;;45.17;13.32;;;22.10;99.90;;;;;;613351;234;26588;-66
2022/08/30 08:38:14;;;;;;;46.63;13.15;;;22.20;99.40;;;;;;613034;235;26644;-66
2022/08/30 08:40:48;;;;;;;47.85;15.45;;;22.30;99.40;;;;;;613024;234;26638;-66
2022/08/30 08:43:15;;;;;;;42.60;13.45;;;22.30;99.20;;;;;;613008;235;26852;-67
2022/08/30 08:45:55;;;;;;;40.72;13.82;;;22.30;99.60;;;;;;612842;235;26649;-66
2022/08/30 08:48:22;;;;;;;38.13;13.35;;;22.00;98.90;;;;;;612417;235;26817;-66
2022/08/30 08:55:57;;;;;;;10.70;5.03;;;21.60;99.10;;;;;;612792;234;26583;-66
2022/08/30 08:58:25;;;;;;;23.20;8.95;;;21.50;99.20;;;;;;612808;234;26588;-67
2022/08/30 09:00:53;;;;;;;15.05;5.65;;;21.50;99.10;;;;;;612611;235;26662;-67
2022/08/30 09:03:21;;;;;;;26.58;9.20;;;21.60;98.90;;;;;;612580;235;26592;-67
2022/08/30 09:05:49;;;;;;;17.55;7.45;;;21.30;99.50;;;;;;612455;234;26637;-67
2022/08/30 09:08:17;;;;;;;18.55;7.50;;;21.40;99.80;;;;;;605373;234;26598;-67
2022/08/30 09:10:55;;;;;;;17.42;6.35;;;21.20;99.90;;;;;;604482;237;26578;-67
2022/08/30 09:13:21;;;;;;;10.30;4.80;;;21.20;99.90;;;;;;604086;235;26574;-67
2022/08/30 09:15:49;;;;;;;14.20;6.18;;;21.00;99.90;;;;;;604533;238;26558;-67
2022/08/30 09:18:17;;;;;;;14.20;5.45;;;20.60;99.90;;;;;;604584;237;26574;-67
2022/08/30 09:20:47;;;;;;;13.85;6.43;;;20.40;99.90;;;;;;604564;237;26626;-67
2022/08/30 09:23:31;;;;;;;12.55;4.85;;;20.50;99.90;;;;;;604359;237;26583;-67
2022/08/30 09:25:58;;;;;;;7.20;3.45;;;20.40;99.90;;;;;;604319;238;26916;-67
2022/08/30 09:28:29;;;;;;;3.50;2.30;;;21.10;99.90;;;;;;604437;237;26608;-67
2022/08/30 09:30:56;;;;;;;4.15;2.90;;;21.10;99.90;;;;;;604485;238;26618;-67
2022/08/30 09:33:24;;;;;;;3.83;3.10;;;21.50;99.50;;;;;;604443;235;26580;-67
2022/08/30 09:35:53;;;;;;;7.57;2.83;;;21.60;99.10;;;;;;604551;238;26589;-67
2022/08/30 09:38:25;;;;;;;6.22;3.20;;;21.50;99.40;;;;;;604550;237;26598;-67
2022/08/30 09:40:53;;;;;;;2.10;1.77;;;21.40;99.40;;;;;;606004;237;26831;-67
2022/08/30 09:43:21;;;;;;;1.95;1.65;;;21.90;98.90;;;;;;605605;236;26654;-67
2022/08/30 09:46:03;;;;;;;4.20;2.05;;;22.10;98.40;;;;;;605225;237;26593;-67
2022/08/30 09:48:42;;;;;;;5.10;2.65;;;22.10;98.40;;;;;;605078;237;26574;-67
2022/08/30 09:51:27;;;;;;;5.60;2.75;;;22.10;97.00;;;;;;604884;238;26867;-67
2022/08/30 09:54:14;;;;;;;1.73;1.62;;;22.10;97.30;;;;;;594823;232;26874;-67
2022/08/30 09:56:56;;;;;;;2.70;2.20;;;22.20;96.40;;;;;;604793;238;26625;-68
2022/08/30 09:59:40;;;;;;;6.25;2.40;;;22.50;95.20;;;;;;603698;238;26597;-72
2022/08/30 10:02:18;;;;;;;1.65;1.55;;;22.40;95.10;;;;;;609575;235;26678;-72
2022/08/30 10:04:56;;;;;;;2.35;1.65;;;22.70;94.60;;;;;;612279;235;26581;-71
2022/08/30 10:07:43;;;;;;;1.85;1.70;;;22.80;93.80;;;;;;612318;235;26587;-71
2022/08/30 10:10:16;;;;;;;2.72;1.90;;;22.70;93.80;;;;;;607722;235;27152;-70
2022/08/30 10:13:08;;;;;;;2.08;1.70;;;23.00;94.10;;;;;;612299;235;26606;-70
2022/08/30 10:15:40;;;;;;;1.48;1.37;;;23.30;93.80;;;;;;607651;235;26857;-71
2022/08/30 10:18:12;;;;;;;1.45;1.23;;;23.40;93.70;;;;;;612265;235;26596;-70
2022/08/30 10:20:40;;;;;;;1.15;1.15;;;23.30;93.30;;;;;;612273;235;26857;-70
2022/08/30 10:23:08;;;;;;;1.55;1.30;;;23.40;93.30;;;;;;611907;235;26608;-70
2022/08/30 10:25:38;;;;;;;1.67;1.50;;;23.60;92.90;;;;;;612321;235;26833;-70
2022/08/30 10:28:11;;;;;;;1.40;1.35;;;23.50;92.80;;;;;;612689;235;26621;-70
2022/08/30 10:30:37;;;;;;;1.40;1.30;;;23.50;92.70;;;;;;612614;235;26623;-70
2022/08/30 10:33:05;;;;;;;1.65;1.48;;;23.60;92.80;;;;;;612742;235;27035;-70
2022/08/30 10:35:33;;;;;;;1.33;1.23;;;23.80;91.50;;;;;;612632;235;26595;-70
2022/08/30 10:38:00;;;;;;;3.03;1.77;;;24.10;92.10;;;;;;612571;235;26592;-70
2022/08/30 10:43:03;;;;;;;3.42;1.85;;;24.40;87.40;;;;;;612504;235;26655;-70
2022/08/30 10:45:30;;;;;;;2.05;1.48;;;24.40;87.30;;;;;;612077;235;26872;-70
2022/08/30 10:48:04;;;;;;;1.80;1.25;;;24.20;84.40;;;;;;612118;235;26631;-70
2022/08/30 10:50:32;;;;;;;2.95;2.00;;;24.40;90.20;;;;;;612419;232;26931;-70
2022/08/30 10:53:02;;;;;;;1.10;1.10;;;24.30;84.80;;;;;;613603;234;26578;-69
2022/08/30 10:55:30;;;;;;;2.58;1.50;;;24.10;85.50;;;;;;612885;234;26583;-70
2022/08/30 10:57:59;;;;;;;1.30;1.10;;;24.30;85.80;;;;;;612978;234;26599;-70
2022/08/30 11:00:42;;;;;;;1.30;0.90;;;24.20;85.70;;;;;;613181;234;26801;-70
2022/08/30 11:03:29;;;;;;;3.40;1.73;;;24.90;82.90;;;;;;611930;235;27336;-70
2022/08/30 11:06:00;;;;;;;1.83;1.60;;;24.90;82.70;;;;;;601741;235;26648;-70
2022/08/30 11:08:33;;;;;;;2.00;1.62;;;24.80;83.80;;;;;;612168;235;26634;-70
2022/08/30 11:11:07;;;;;;;1.05;1.05;;;24.20;85.90;;;;;;612518;235;26610;-70
2022/08/30 11:13:35;;;;;;;1.50;1.33;;;24.70;87.10;;;;;;612770;235;26600;-70
2022/08/30 11:16:09;;;;;;;1.92;1.77;;;24.40;87.10;;;;;;612573;235;26575;-70
2022/08/30 11:18:43;;;;;;;1.95;1.05;;;24.40;87.50;;;;;;612625;234;26574;-70
2022/08/30 11:21:18;;;;;;;3.25;1.10;;;24.70;87.90;;;;;;612692;234;26616;-70
2022/08/30 11:23:57;;;;;;;1.60;1.50;;;24.90;87.50;;;;;;612554;235;26807;-70
2022/08/30 11:26:37;;;;;;;1.65;1.48;;;24.90;86.30;;;;;;612623;235;26816;-70
2022/08/30 11:29:05;;;;;;;1.60;1.50;;;24.40;87.10;;;;;;612502;235;26835;-70
2022/08/30 11:31:33;;;;;;;1.25;1.23;;;24.40;87.70;;;;;;612418;234;26891;-70
2022/08/30 11:34:00;;;;;;;1.80;1.60;;;24.70;85.10;;;;;;612229;235;26613;-70
2022/08/30 11:36:58;;;;;;;1.77;1.25;;;25.00;85.10;;;;;;612502;234;26606;-70
2022/08/30 11:39:44;;;;;;;1.55;1.30;;;25.00;85.20;;;;;;612413;235;26660;-70
2022/08/30 11:42:12;;;;;;;1.00;1.00;;;25.20;83.40;;;;;;612459;235;26695;-70
2022/08/30 11:44:40;;;;;;;1.02;1.02;;;25.30;83.10;;;;;;610719;235;26687;-70
2022/08/30 11:47:43;;;;;;;0.95;0.95;;;25.30;82.70;;;;;;612464;235;26845;-69
2022/08/30 11:50:12;;;;;;;1.08;1.00;;;25.50;82.30;;;;;;608028;235;26685;-69
2022/08/30 11:52:42;;;;;;;1.17;1.08;;;25.50;82.00;;;;;;608127;235;26865;-69
2022/08/30 11:55:17;;;;;;;1.02;1.02;;;26.20;80.00;;;;;;611064;235;26558;-67
2022/08/30 11:58:02;;;;;;;1.05;1.00;;;26.20;79.30;;;;;;611410;235;26555;-67
2022/08/30 12:00:33;;;;;;;0.98;0.88;;;25.90;77.60;;;;;;608076;235;26623;-67
2022/08/30 12:03:02;;;;;;;1.40;1.30;;;25.60;77.80;;;;;;611552;233;26615;-67
2022/08/30 12:05:49;;;;;;;1.33;1.00;;;25.50;82.70;;;;;;606382;234;26637;-67
2022/08/30 12:08:43;;;;;;;1.42;1.17;;;25.60;82.40;;;;;;609364;234;26618;-67
2022/08/30 12:11:46;;;;;;;1.50;1.30;;;25.50;82.10;;;;;;610610;234;26822;-69
2022/08/30 12:14:13;;;;;;;0.90;0.90;;;25.70;80.50;;;;;;599844;234;26614;-69
2022/08/30 12:18:26;;;;;;;0.90;0.90;;;25.50;81.20;;;;;;608761;235;26655;-69
2022/08/30 12:19:11;;;;;;;1.37;1.27;;;25.70;81.10;;;;;;608160;235;26828;-69
2022/08/30 12:21:38;;;;;;;1.02;1.00;;;25.70;77.00;;;;;;607159;235;26663;-69
2022/08/30 12:24:20;;;;;;;0.88;0.88;;;25.60;78.10;;;;;;608689;235;26663;-69
2022/08/30 12:26:48;;;;;;;1.30;1.20;;;25.60;79.80;;;;;;603326;232;26606;-69
2022/08/30 12:29:20;;;;;;;0.70;0.70;;;25.50;77.10;;;;;;604778;238;26618;-69
2022/08/30 12:31:48;;;;;;;1.30;1.20;;;25.50;77.00;;;;;;604662;238;26617;-69
2022/08/30 12:34:18;;;;;;;0.80;0.80;;;25.60;77.60;;;;;;604762;238;26589;-69
2022/08/30 12:36:59;;;;;;;2.10;1.00;;;25.60;77.50;;;;;;610326;235;26648;-70
2022/08/30 12:39:27;;;;;;;0.90;0.90;;;25.60;77.50;;;;;;609387;234;26633;-67
2022/08/30 12:41:54;;;;;;;0.82;0.82;;;25.70;78.10;;;;;;607928;235;26656;-67
2022/08/30 12:44:23;;;;;;;0.88;0.88;;;26.00;78.90;;;;;;607157;235;26585;-68
2022/08/30 12:46:54;;;;;;;0.75;0.75;;;25.90;78.90;;;;;;604528;237;26579;-68
2022/08/30 12:49:22;;;;;;;1.00;1.00;;;25.90;77.80;;;;;;604518;238;26632;-68
2022/08/30 12:51:49;;;;;;;0.77;0.75;;;25.90;78.20;;;;;;604470;237;26605;-67
2022/08/30 12:54:17;;;;;;;1.62;1.52;;;26.00;78.70;;;;;;604619;237;26586;-67
2022/08/30 12:56:49;;;;;;;0.93;0.93;;;26.00;75.00;;;;;;605873;235;26825;-67
2022/08/30 12:59:29;;;;;;;3.33;1.23;;;25.70;75.90;;;;;;610010;236;26570;-68
2022/08/30 13:01:56;;;;;;;1.12;1.10;;;25.70;75.70;;;;;;606231;235;26877;-67
2022/08/30 13:04:23;;;;;;;1.12;1.12;;;25.60;77.00;;;;;;603212;238;26563;-67